Thursday, January 17, 2019, 6:00 AM EST
Back to Local

KGFL, Floyd Bennett Memorial Airport

Location: Queensbury, NY, United States Lat: 43.333
Local Time: 6:00 AM EST (11:00 GMT) Lon: -73.617
Time Zone: US/Eastern Elev: 328 ft

Show me the last for .
Show Decoded

2019-01-17 04:53 METAR KGFL 170953Z AUTO 36003KT 10SM CLR M14/M19 A3037 RMK AO2 SLP295 T11391194
                 =
2019-01-17 03:53 METAR KGFL 170853Z AUTO 03004KT 10SM CLR M13/M19 A3035 RMK AO2 SLP290 T11281194
                 51022 =
2019-01-17 02:53 METAR KGFL 170753Z AUTO 35006KT 10SM CLR M12/M19 A3034 RMK AO2 SLP286 T11221189
                 =
2019-01-17 01:53 METAR KGFL 170653Z AUTO 35006KT 10SM CLR M12/M19 A3032 RMK AO2 SLP277 T11171189
                 =
2019-01-17 00:53 METAR KGFL 170553Z AUTO 04008KT 10SM CLR M11/M18 A3029 RMK AO2 SLP267 60000
                 T11061183 11006 21106 51025 =
2019-01-16 23:53 METAR KGFL 170453Z AUTO 33008KT 10SM CLR M09/M19 A3026 RMK AO2 SLP259 T10941189
                 400221094 =
2019-01-16 22:53 METAR KGFL 170353Z AUTO 34012KT 10SM CLR M08/M17 A3025 RMK AO2 SLP252 T10831167
                 =
2019-01-16 21:53 METAR KGFL 170253Z AUTO 35008G16KT 10SM CLR M06/M17 A3021 RMK AO2 PRESRR SLP242
                 60000 T10611172 53052 =
2019-01-16 20:53 METAR KGFL 170153Z AUTO 32012KT 10SM CLR M04/M13 A3016 RMK AO2 SLP221 T10441133
                 =
2019-01-16 19:53 METAR KGFL 170053Z AUTO 34010G21KT 9SM FEW025 FEW030 OVC041 M03/M10 A3012 RMK
                 AO2 SNB27E51 SLP208 P0000 T10281100 =
2019-01-16 18:53 METAR KGFL 162353Z AUTO 27006KT 10SM SCT060 M01/M11 A3006 RMK AO2 SLP188 60000
                 T10061106 10022 21006 53044 =
2019-01-16 17:53 METAR KGFL 162253Z AUTO 28013G22KT 10SM SCT055 01/M11 A3001 RMK AO2 SLP172
                 T00061106 =
2019-01-16 16:53 METAR KGFL 162153Z AUTO 24008KT 10SM BKN049 OVC060 01/M05 A2996 RMK AO2 SNE2058
                 SLP153 P0000 T00111050 =
2019-01-16 15:53 METAR KGFL 162053Z AUTO 25008G16KT 6SM -SN BKN037 OVC065 02/M04 A2993 RMK AO2
                 SNB07 SLP142 P0000 60000 T00171039 53015 =
2019-01-16 15:49 METAR KGFL 162049Z AUTO 25007G16KT 3SM -SN OVC035 02/M04 A2992 RMK AO2 SNB07
                 P0000 =
2019-01-16 15:44 METAR KGFL 162044Z AUTO 25008G18KT 210V280 1 1/2SM -SN BKN026 OVC039 02/M03
                 A2992 RMK AO2 SNB07 P0000 T00171033 =
2019-01-16 15:37 METAR KGFL 162037Z AUTO 27011G18KT 2 1/2SM -SN BKN026 OVC040 02/M04 A2992 RMK
                 AO2 SNB07 P0000 T00221044 =
2019-01-16 14:53 METAR KGFL 161953Z AUTO 20007KT 10SM OVC040 02/M04 A2990 RMK AO2 SLP132
                 T00171044 =
2019-01-16 13:53 METAR KGFL 161853Z AUTO 21008KT 10SM OVC037 02/M04 A2988 RMK AO2 SLP127
                 T00171044 =
2019-01-16 13:04 METAR KGFL 161804Z AUTO 21008KT 10SM BKN030 OVC037 01/M04 A2988 RMK AO2
                 T00111044 =
2019-01-16 12:53 METAR KGFL 161753Z AUTO 20009KT 10SM BKN028 OVC037 01/M04 A2988 RMK AO2 SNB18E29
                 SLP127 P0000 60000 T00111044 10011 21022 58019 =
2019-01-16 12:16 METAR KGFL 161716Z AUTO 19009KT 9SM BKN029 OVC037 01/M04 A2989 RMK AO2 T00061044
                 =
2019-01-16 11:53 METAR KGFL 161653Z AUTO 20009KT 10SM OVC035 01/M04 A2990 RMK AO2 SLP134
                 T00061044 =
2019-01-16 11:30 METAR KGFL 161630Z AUTO 20008KT 10SM FEW027 OVC035 00/M04 A2991 RMK AO2
                 T00001044 =
2019-01-16 10:53 METAR KGFL 161553Z AUTO 18009KT 10SM BKN025 OVC031 M01/M05 A2993 RMK AO2 SLP145
                 T10061050 =
2019-01-16 09:53 METAR KGFL 161453Z AUTO 19008KT 8SM OVC025 M01/M06 A2994 RMK AO2 SLP147
                 T10111056 53005 =
2019-01-16 08:53 METAR KGFL 161353Z AUTO 21009KT 10SM OVC025 M01/M06 A2993 RMK AO2 SLP144
                 T10111061 =
2019-01-16 08:20 METAR KGFL 161320Z AUTO 18011KT 10SM BKN028 OVC037 M02/M07 A2992 RMK AO2
                 T10171067 =
2019-01-16 07:53 METAR KGFL 161253Z AUTO 19008KT 10SM OVC035 M02/M07 A2992 RMK AO2 SLP141
                 T10171067 =
2019-01-16 07:20 METAR KGFL 161220Z AUTO 18006KT 10SM FEW027 OVC037 M02/M07 A2992 RMK AO2
                 T10221067 =
2019-01-16 06:53 METAR KGFL 161153Z AUTO 18008KT 10SM OVC027 M02/M07 A2992 RMK AO2 SLP142
                 T10171072 11011 21022 57003 =

Support USWX by starting your Amazon purchase here.